sensor_id;sensor_type;location;lat;lon;timestamp;temperature;humidity
29201;DHT22;16244;51.956;12.980;2024-01-15T00:00:11;1.10;99.90
29201;DHT22;16244;51.956;12.980;2024-01-15T00:02:39;1.00;99.90
29201;DHT22;16244;51.956;12.980;2024-01-15T00:05:07;1.10;99.90
29201;DHT22;16244;51.956;12.980;2024-01-15T00:07:35;1.10;99.90
29201;DHT22;16244;51.956;12.980;2024-01-15T00:10:04;1.10;99.90
29201;DHT22;16244;51.956;12.980;2024-01-15T00:12:32;1.00;99.90
29201;DHT22;16244;51.956;12.980;2024-01-15T00:14:59;1.00;99.90
29201;DHT22;16244;51.956;12.980;2024-01-15T00:17:27;1.00;99.90
29201;DHT22;16244;51.956;12.980;2024-01-15T00:19:54;1.00;99.90
29201;DHT22;16244;51.956;12.980;2024-01-15T00:22:23;1.00;99.90
29201;DHT22;16244;51.956;12.980;2024-01-15T00:24:50;1.00;99.90
29201;DHT22;16244;51.956;12.980;2024-01-15T00:27:19;1.00;99.90
29201;DHT22;16244;51.956;12.980;2024-01-15T00:29:47;1.00;99.90
29201;DHT22;16244;51.956;12.980;2024-01-15T00:32:14;1.00;99.90
29201;DHT22;16244;51.956;12.980;2024-01-15T00:34:41;1.00;99.90
29201;DHT22;16244;51.956;12.980;2024-01-15T00:37:09;1.00;99.90
29201;DHT22;16244;51.956;12.980;2024-01-15T00:39:36;1.00;99.90
29201;DHT22;16244;51.956;12.980;2024-01-15T00:42:04;1.00;99.90
29201;DHT22;16244;51.956;12.980;2024-01-15T00:44:33;0.90;99.90
29201;DHT22;16244;51.956;12.980;2024-01-15T00:47:00;0.90;99.90
29201;DHT22;16244;51.956;12.980;2024-01-15T00:49:28;0.90;99.90
29201;DHT22;16244;51.956;12.980;2024-01-15T00:51:56;0.90;99.90
29201;DHT22;16244;51.956;12.980;2024-01-15T00:54:23;0.90;99.90
29201;DHT22;16244;51.956;12.980;2024-01-15T00:56:51;0.90;99.90
29201;DHT22;16244;51.956;12.980;2024-01-15T00:59:18;0.80;99.90
29201;DHT22;16244;51.956;12.980;2024-01-15T01:01:48;0.90;99.90
29201;DHT22;16244;51.956;12.980;2024-01-15T01:04:15;0.80;99.90
29201;DHT22;16244;51.956;12.980;2024-01-15T01:06:43;0.80;99.90
29201;DHT22;16244;51.956;12.980;2024-01-15T01:09:10;0.90;99.90
29201;DHT22;16244;51.956;12.980;2024-01-15T01:11:38;0.80;99.90
29201;DHT22;16244;51.956;12.980;2024-01-15T01:14:05;0.90;99.90
29201;DHT22;16244;51.956;12.980;2024-01-15T01:16:32;0.90;99.90
29201;DHT22;16244;51.956;12.980;2024-01-15T01:19:06;0.80;99.90
29201;DHT22;16244;51.956;12.980;2024-01-15T01:21:34;0.90;99.90
29201;DHT22;16244;51.956;12.980;2024-01-15T01:24:01;0.90;99.90
29201;DHT22;16244;51.956;12.980;2024-01-15T01:26:29;0.90;99.90
29201;DHT22;16244;51.956;12.980;2024-01-15T01:28:56;0.90;99.90
29201;DHT22;16244;51.956;12.980;2024-01-15T01:31:24;0.90;99.90
29201;DHT22;16244;51.956;12.980;2024-01-15T01:33:51;0.90;99.90
29201;DHT22;16244;51.956;12.980;2024-01-15T01:36:20;0.90;99.90
29201;DHT22;16244;51.956;12.980;2024-01-15T01:38:47;0.90;99.90
29201;DHT22;16244;51.956;12.980;2024-01-15T01:41:15;0.90;99.90
29201;DHT22;16244;51.956;12.980;2024-01-15T01:43:43;0.80;99.90
29201;DHT22;16244;51.956;12.980;2024-01-15T01:46:11;0.80;99.90
29201;DHT22;16244;51.956;12.980;2024-01-15T01:48:39;0.80;99.90
29201;DHT22;16244;51.956;12.980;2024-01-15T01:51:07;0.80;99.90
29201;DHT22;16244;51.956;12.980;2024-01-15T01:53:43;0.80;99.90
29201;DHT22;16244;51.956;12.980;2024-01-15T01:56:16;0.70;99.90
29201;DHT22;16244;51.956;12.980;2024-01-15T01:58:44;0.80;99.90
29201;DHT22;16244;51.956;12.980;2024-01-15T02:01:12;0.70;99.90
29201;DHT22;16244;51.956;12.980;2024-01-15T02:03:40;0.80;99.90
29201;DHT22;16244;51.956;12.980;2024-01-15T02:06:08;0.70;99.90
29201;DHT22;16244;51.956;12.980;2024-01-15T02:08:35;0.70;99.90
29201;DHT22;16244;51.956;12.980;2024-01-15T02:11:05;0.60;99.90
29201;DHT22;16244;51.956;12.980;2024-01-15T02:13:33;0.70;99.90
29201;DHT22;16244;51.956;12.980;2024-01-15T02:16:00;0.70;99.90
29201;DHT22;16244;51.956;12.980;2024-01-15T02:18:28;0.70;99.90
29201;DHT22;16244;51.956;12.980;2024-01-15T02:20:56;0.70;99.90
29201;DHT22;16244;51.956;12.980;2024-01-15T02:23:24;0.70;99.90
29201;DHT22;16244;51.956;12.980;2024-01-15T02:25:52;0.70;99.90
29201;DHT22;16244;51.956;12.980;2024-01-15T02:28:19;0.70;99.90
29201;DHT22;16244;51.956;12.980;2024-01-15T02:30:47;0.70;99.90
29201;DHT22;16244;51.956;12.980;2024-01-15T02:33:14;0.70;99.90
29201;DHT22;16244;51.956;12.980;2024-01-15T02:35:42;0.70;99.90
29201;DHT22;16244;51.956;12.980;2024-01-15T02:38:09;0.70;99.90
29201;DHT22;16244;51.956;12.980;2024-01-15T02:40:38;0.70;99.90
29201;DHT22;16244;51.956;12.980;2024-01-15T02:43:06;0.70;99.90
29201;DHT22;16244;51.956;12.980;2024-01-15T02:45:33;0.80;99.90
29201;DHT22;16244;51.956;12.980;2024-01-15T02:48:01;0.80;99.90
29201;DHT22;16244;51.956;12.980;2024-01-15T02:50:28;0.80;99.90
29201;DHT22;16244;51.956;12.980;2024-01-15T02:52:56;0.80;99.90
29201;DHT22;16244;51.956;12.980;2024-01-15T02:55:23;0.80;99.90
29201;DHT22;16244;51.956;12.980;2024-01-15T02:57:52;0.90;99.90
29201;DHT22;16244;51.956;12.980;2024-01-15T03:00:21;0.90;99.90
29201;DHT22;16244;51.956;12.980;2024-01-15T03:02:50;0.80;99.90
29201;DHT22;16244;51.956;12.980;2024-01-15T03:05:18;0.80;99.90
29201;DHT22;16244;51.956;12.980;2024-01-15T03:07:46;0.80;99.90
29201;DHT22;16244;51.956;12.980;2024-01-15T03:10:14;0.80;99.90
29201;DHT22;16244;51.956;12.980;2024-01-15T03:12:41;0.80;99.90
29201;DHT22;16244;51.956;12.980;2024-01-15T03:15:10;0.80;99.90
29201;DHT22;16244;51.956;12.980;2024-01-15T03:17:37;0.80;99.90
29201;DHT22;16244;51.956;12.980;2024-01-15T03:20:05;0.90;99.90
29201;DHT22;16244;51.956;12.980;2024-01-15T03:22:33;0.80;99.90
29201;DHT22;16244;51.956;12.980;2024-01-15T03:25:01;0.90;99.90
29201;DHT22;16244;51.956;12.980;2024-01-15T03:27:28;0.80;99.90
29201;DHT22;16244;51.956;12.980;2024-01-15T03:29:56;0.80;99.90
29201;DHT22;16244;51.956;12.980;2024-01-15T03:32:24;0.80;99.90
29201;DHT22;16244;51.956;12.980;2024-01-15T03:34:52;0.80;99.90
29201;DHT22;16244;51.956;12.980;2024-01-15T03:37:19;0.80;99.90
29201;DHT22;16244;51.956;12.980;2024-01-15T03:39:47;0.70;99.90
29201;DHT22;16244;51.956;12.980;2024-01-15T03:42:14;0.80;99.90
29201;DHT22;16244;51.956;12.980;2024-01-15T03:44:42;0.80;99.90
29201;DHT22;16244;51.956;12.980;2024-01-15T03:47:10;0.80;99.90
29201;DHT22;16244;51.956;12.980;2024-01-15T03:49:38;0.80;99.90
29201;DHT22;16244;51.956;12.980;2024-01-15T03:52:06;0.80;99.90
29201;DHT22;16244;51.956;12.980;2024-01-15T03:54:33;0.80;99.90
29201;DHT22;16244;51.956;12.980;2024-01-15T03:57:01;0.70;99.90
29201;DHT22;16244;51.956;12.980;2024-01-15T03:59:28;0.70;99.90
29201;DHT22;16244;51.956;12.980;2024-01-15T04:01:55;0.70;99.90
29201;DHT22;16244;51.956;12.980;2024-01-15T04:04:23;0.70;99.90
29201;DHT22;16244;51.956;12.980;2024-01-15T04:06:52;0.70;99.90
29201;DHT22;16244;51.956;12.980;2024-01-15T04:09:19;0.70;99.90
29201;DHT22;16244;51.956;12.980;2024-01-15T04:11:47;0.70;99.90
29201;DHT22;16244;51.956;12.980;2024-01-15T04:14:14;0.70;99.90
29201;DHT22;16244;51.956;12.980;2024-01-15T04:16:42;0.70;99.90
29201;DHT22;16244;51.956;12.980;2024-01-15T04:19:09;0.70;99.90
29201;DHT22;16244;51.956;12.980;2024-01-15T04:21:37;0.80;99.90
29201;DHT22;16244;51.956;12.980;2024-01-15T04:24:06;0.80;99.90
29201;DHT22;16244;51.956;12.980;2024-01-15T04:26:33;0.80;99.90
29201;DHT22;16244;51.956;12.980;2024-01-15T04:29:01;0.80;99.90
29201;DHT22;16244;51.956;12.980;2024-01-15T04:31:28;0.80;99.90
29201;DHT22;16244;51.956;12.980;2024-01-15T04:33:56;0.80;99.90
29201;DHT22;16244;51.956;12.980;2024-01-15T04:36:23;0.80;99.90
29201;DHT22;16244;51.956;12.980;2024-01-15T04:38:51;0.80;99.90
29201;DHT22;16244;51.956;12.980;2024-01-15T04:41:19;0.80;99.90
29201;DHT22;16244;51.956;12.980;2024-01-15T04:43:47;0.80;99.90
29201;DHT22;16244;51.956;12.980;2024-01-15T04:46:14;0.80;99.90
29201;DHT22;16244;51.956;12.980;2024-01-15T04:48:42;0.90;99.90
29201;DHT22;16244;51.956;12.980;2024-01-15T04:51:09;0.90;99.90
29201;DHT22;16244;51.956;12.980;2024-01-15T04:53:37;0.90;99.90
29201;DHT22;16244;51.956;12.980;2024-01-15T04:56:04;0.90;99.90
29201;DHT22;16244;51.956;12.980;2024-01-15T04:58:33;0.90;99.90
29201;DHT22;16244;51.956;12.980;2024-01-15T05:01:01;0.90;99.90
29201;DHT22;16244;51.956;12.980;2024-01-15T05:03:28;0.90;99.90
29201;DHT22;16244;51.956;12.980;2024-01-15T05:05:56;0.90;99.90
29201;DHT22;16244;51.956;12.980;2024-01-15T05:08:23;0.90;99.90
29201;DHT22;16244;51.956;12.980;2024-01-15T05:10:50;0.90;99.90
29201;DHT22;16244;51.956;12.980;2024-01-15T05:13:18;0.90;99.90
29201;DHT22;16244;51.956;12.980;2024-01-15T05:15:47;0.90;99.90
29201;DHT22;16244;51.956;12.980;2024-01-15T05:18:14;0.90;99.90
29201;DHT22;16244;51.956;12.980;2024-01-15T05:20:41;0.80;99.90
29201;DHT22;16244;51.956;12.980;2024-01-15T05:23:09;0.80;99.90
29201;DHT22;16244;51.956;12.980;2024-01-15T05:25:37;0.70;99.90
29201;DHT22;16244;51.956;12.980;2024-01-15T05:28:05;0.70;99.90
29201;DHT22;16244;51.956;12.980;2024-01-15T05:30:32;0.60;99.90
29201;DHT22;16244;51.956;12.980;2024-01-15T05:33:01;0.60;99.90
29201;DHT22;16244;51.956;12.980;2024-01-15T05:35:29;0.60;99.90
29201;DHT22;16244;51.956;12.980;2024-01-15T05:37:57;0.50;99.90
29201;DHT22;16244;51.956;12.980;2024-01-15T05:40:24;0.60;99.90
29201;DHT22;16244;51.956;12.980;2024-01-15T05:42:52;0.60;99.90
29201;DHT22;16244;51.956;12.980;2024-01-15T05:45:19;0.60;99.90
29201;DHT22;16244;51.956;12.980;2024-01-15T05:47:47;0.60;99.90
29201;DHT22;16244;51.956;12.980;2024-01-15T05:50:15;0.60;99.90
29201;DHT22;16244;51.956;12.980;2024-01-15T05:52:43;0.70;99.90
29201;DHT22;16244;51.956;12.980;2024-01-15T05:55:10;0.70;99.90
29201;DHT22;16244;51.956;12.980;2024-01-15T05:57:38;0.70;99.90
29201;DHT22;16244;51.956;12.980;2024-01-15T06:00:06;0.70;99.90
29201;DHT22;16244;51.956;12.980;2024-01-15T06:02:35;0.70;99.90
29201;DHT22;16244;51.956;12.980;2024-01-15T06:05:02;0.70;99.90
29201;DHT22;16244;51.956;12.980;2024-01-15T06:07:31;0.80;99.90
29201;DHT22;16244;51.956;12.980;2024-01-15T06:09:59;0.70;99.90
29201;DHT22;16244;51.956;12.980;2024-01-15T06:12:27;0.70;99.90
29201;DHT22;16244;51.956;12.980;2024-01-15T06:14:55;0.70;99.90
29201;DHT22;16244;51.956;12.980;2024-01-15T06:17:22;0.80;99.90
29201;DHT22;16244;51.956;12.980;2024-01-15T06:19:50;0.70;99.90
29201;DHT22;16244;51.956;12.980;2024-01-15T06:22:18;0.70;99.90
29201;DHT22;16244;51.956;12.980;2024-01-15T06:24:47;0.70;99.90
29201;DHT22;16244;51.956;12.980;2024-01-15T06:27:14;0.70;99.90
29201;DHT22;16244;51.956;12.980;2024-01-15T06:29:45;0.70;99.90
29201;DHT22;16244;51.956;12.980;2024-01-15T06:32:13;0.70;99.90
29201;DHT22;16244;51.956;12.980;2024-01-15T06:34:41;0.70;99.90
29201;DHT22;16244;51.956;12.980;2024-01-15T06:37:08;0.80;99.90
29201;DHT22;16244;51.956;12.980;2024-01-15T06:39:36;0.70;99.90
29201;DHT22;16244;51.956;12.980;2024-01-15T06:42:05;0.80;99.90
29201;DHT22;16244;51.956;12.980;2024-01-15T06:44:32;0.80;99.90
29201;DHT22;16244;51.956;12.980;2024-01-15T06:47:00;0.70;99.90
29201;DHT22;16244;51.956;12.980;2024-01-15T06:49:28;0.70;99.90
29201;DHT22;16244;51.956;12.980;2024-01-15T06:51:56;0.70;99.90
29201;DHT22;16244;51.956;12.980;2024-01-15T06:54:24;0.70;99.90
29201;DHT22;16244;51.956;12.980;2024-01-15T06:56:52;0.80;99.90
29201;DHT22;16244;51.956;12.980;2024-01-15T06:59:21;0.80;99.90
29201;DHT22;16244;51.956;12.980;2024-01-15T07:01:48;0.80;99.90
29201;DHT22;16244;51.956;12.980;2024-01-15T07:04:16;0.80;99.90
29201;DHT22;16244;51.956;12.980;2024-01-15T07:06:44;0.80;99.90
29201;DHT22;16244;51.956;12.980;2024-01-15T07:09:12;0.80;99.90
29201;DHT22;16244;51.956;12.980;2024-01-15T07:11:44;0.80;99.90
29201;DHT22;16244;51.956;12.980;2024-01-15T07:14:11;0.90;99.90
29201;DHT22;16244;51.956;12.980;2024-01-15T07:16:40;0.90;99.90
29201;DHT22;16244;51.956;12.980;2024-01-15T07:19:08;0.80;99.90
29201;DHT22;16244;51.956;12.980;2024-01-15T07:21:35;0.80;99.90
29201;DHT22;16244;51.956;12.980;2024-01-15T07:24:03;0.80;99.90
29201;DHT22;16244;51.956;12.980;2024-01-15T07:26:30;0.80;99.90
29201;DHT22;16244;51.956;12.980;2024-01-15T07:28:58;0.80;99.90
29201;DHT22;16244;51.956;12.980;2024-01-15T07:31:26;0.90;99.90
29201;DHT22;16244;51.956;12.980;2024-01-15T07:33:55;0.90;99.90
29201;DHT22;16244;51.956;12.980;2024-01-15T07:36:23;0.90;99.90
29201;DHT22;16244;51.956;12.980;2024-01-15T07:38:50;0.90;99.90
29201;DHT22;16244;51.956;12.980;2024-01-15T07:41:18;0.90;99.90
29201;DHT22;16244;51.956;12.980;2024-01-15T07:43:45;0.90;99.90
29201;DHT22;16244;51.956;12.980;2024-01-15T07:46:13;0.90;99.90
29201;DHT22;16244;51.956;12.980;2024-01-15T07:48:40;0.90;99.90
29201;DHT22;16244;51.956;12.980;2024-01-15T07:51:09;0.90;99.90
29201;DHT22;16244;51.956;12.980;2024-01-15T07:53:36;0.90;99.90
29201;DHT22;16244;51.956;12.980;2024-01-15T07:56:04;0.90;99.90
29201;DHT22;16244;51.956;12.980;2024-01-15T07:58:31;0.90;99.90
29201;DHT22;16244;51.956;12.980;2024-01-15T08:00:59;1.00;99.90
29201;DHT22;16244;51.956;12.980;2024-01-15T08:03:26;1.00;99.90
29201;DHT22;16244;51.956;12.980;2024-01-15T08:05:53;1.00;99.90
29201;DHT22;16244;51.956;12.980;2024-01-15T08:08:25;1.00;99.90
29201;DHT22;16244;51.956;12.980;2024-01-15T08:10:52;0.90;99.90
29201;DHT22;16244;51.956;12.980;2024-01-15T08:13:20;1.00;99.90
29201;DHT22;16244;51.956;12.980;2024-01-15T08:15:47;1.00;99.90
29201;DHT22;16244;51.956;12.980;2024-01-15T08:18:16;1.00;99.90
29201;DHT22;16244;51.956;12.980;2024-01-15T08:20:44;1.00;99.90
29201;DHT22;16244;51.956;12.980;2024-01-15T08:23:11;1.00;99.90
29201;DHT22;16244;51.956;12.980;2024-01-15T08:25:40;1.00;99.90
29201;DHT22;16244;51.956;12.980;2024-01-15T08:28:07;0.90;99.90
29201;DHT22;16244;51.956;12.980;2024-01-15T08:30:35;0.90;99.90
29201;DHT22;16244;51.956;12.980;2024-01-15T08:33:03;0.90;99.90
29201;DHT22;16244;51.956;12.980;2024-01-15T08:35:40;0.90;99.90
29201;DHT22;16244;51.956;12.980;2024-01-15T08:38:08;0.90;99.90
29201;DHT22;16244;51.956;12.980;2024-01-15T08:40:35;0.90;99.90
29201;DHT22;16244;51.956;12.980;2024-01-15T08:43:04;0.90;99.90
29201;DHT22;16244;51.956;12.980;2024-01-15T08:45:33;1.00;99.90
29201;DHT22;16244;51.956;12.980;2024-01-15T08:48:00;1.00;99.90
29201;DHT22;16244;51.956;12.980;2024-01-15T08:50:29;1.10;99.90
29201;DHT22;16244;51.956;12.980;2024-01-15T08:52:56;1.10;99.90
29201;DHT22;16244;51.956;12.980;2024-01-15T08:55:24;1.20;99.90
29201;DHT22;16244;51.956;12.980;2024-01-15T08:57:51;1.10;99.90
29201;DHT22;16244;51.956;12.980;2024-01-15T09:00:48;1.20;99.90
29201;DHT22;16244;51.956;12.980;2024-01-15T09:03:18;1.20;99.90
29201;DHT22;16244;51.956;12.980;2024-01-15T09:05:45;1.20;99.90
29201;DHT22;16244;51.956;12.980;2024-01-15T09:08:13;1.10;99.90
29201;DHT22;16244;51.956;12.980;2024-01-15T09:10:40;1.10;99.90
29201;DHT22;16244;51.956;12.980;2024-01-15T09:13:08;1.10;99.90
29201;DHT22;16244;51.956;12.980;2024-01-15T09:15:38;1.10;99.90
29201;DHT22;16244;51.956;12.980;2024-01-15T09:18:07;1.10;99.90
29201;DHT22;16244;51.956;12.980;2024-01-15T09:20:34;1.10;99.90
29201;DHT22;16244;51.956;12.980;2024-01-15T09:23:02;1.10;99.90
29201;DHT22;16244;51.956;12.980;2024-01-15T09:25:29;1.10;99.90
29201;DHT22;16244;51.956;12.980;2024-01-15T09:28:25;1.20;99.90
29201;DHT22;16244;51.956;12.980;2024-01-15T09:30:53;1.30;99.90
29201;DHT22;16244;51.956;12.980;2024-01-15T09:33:26;1.30;99.90
29201;DHT22;16244;51.956;12.980;2024-01-15T09:35:53;1.30;99.90
29201;DHT22;16244;51.956;12.980;2024-01-15T09:38:21;1.30;99.90
29201;DHT22;16244;51.956;12.980;2024-01-15T09:40:50;1.30;99.90
29201;DHT22;16244;51.956;12.980;2024-01-15T09:43:19;1.20;99.90
29201;DHT22;16244;51.956;12.980;2024-01-15T09:45:47;1.30;99.90
29201;DHT22;16244;51.956;12.980;2024-01-15T09:48:16;1.30;99.90
29201;DHT22;16244;51.956;12.980;2024-01-15T09:50:45;1.30;99.90
29201;DHT22;16244;51.956;12.980;2024-01-15T09:53:14;1.40;99.90
29201;DHT22;16244;51.956;12.980;2024-01-15T09:55:42;1.30;99.90
29201;DHT22;16244;51.956;12.980;2024-01-15T09:58:10;1.40;99.90
29201;DHT22;16244;51.956;12.980;2024-01-15T10:00:39;1.40;99.90
29201;DHT22;16244;51.956;12.980;2024-01-15T10:03:08;1.40;99.90
29201;DHT22;16244;51.956;12.980;2024-01-15T10:05:36;1.40;99.90
29201;DHT22;16244;51.956;12.980;2024-01-15T10:08:05;1.40;99.90
29201;DHT22;16244;51.956;12.980;2024-01-15T10:10:36;1.40;99.90
29201;DHT22;16244;51.956;12.980;2024-01-15T10:13:04;1.40;99.90
29201;DHT22;16244;51.956;12.980;2024-01-15T10:15:34;1.30;99.90
29201;DHT22;16244;51.956;12.980;2024-01-15T10:18:03;1.20;99.90
29201;DHT22;16244;51.956;12.980;2024-01-15T10:20:32;1.20;99.90
29201;DHT22;16244;51.956;12.980;2024-01-15T10:22:59;1.20;99.90
29201;DHT22;16244;51.956;12.980;2024-01-15T10:25:29;1.10;99.90
29201;DHT22;16244;51.956;12.980;2024-01-15T10:28:02;1.10;99.90
29201;DHT22;16244;51.956;12.980;2024-01-15T10:30:32;1.00;99.90
29201;DHT22;16244;51.956;12.980;2024-01-15T10:33:00;1.00;99.90
29201;DHT22;16244;51.956;12.980;2024-01-15T10:35:29;1.10;99.90
29201;DHT22;16244;51.956;12.980;2024-01-15T10:37:57;1.10;99.90
29201;DHT22;16244;51.956;12.980;2024-01-15T10:40:24;1.10;99.90
29201;DHT22;16244;51.956;12.980;2024-01-15T10:42:53;1.20;99.90
29201;DHT22;16244;51.956;12.980;2024-01-15T10:45:22;1.20;99.90
29201;DHT22;16244;51.956;12.980;2024-01-15T10:47:49;1.20;99.90
29201;DHT22;16244;51.956;12.980;2024-01-15T10:50:18;1.30;99.90
29201;DHT22;16244;51.956;12.980;2024-01-15T10:52:45;1.40;99.90
29201;DHT22;16244;51.956;12.980;2024-01-15T10:55:13;1.40;99.90
29201;DHT22;16244;51.956;12.980;2024-01-15T10:57:41;1.50;99.90
29201;DHT22;16244;51.956;12.980;2024-01-15T11:00:15;1.60;99.90
29201;DHT22;16244;51.956;12.980;2024-01-15T11:02:44;1.70;99.90
29201;DHT22;16244;51.956;12.980;2024-01-15T11:05:12;1.80;99.90
29201;DHT22;16244;51.956;12.980;2024-01-15T11:07:40;1.80;99.90
29201;DHT22;16244;51.956;12.980;2024-01-15T11:10:38;1.80;99.90
29201;DHT22;16244;51.956;12.980;2024-01-15T11:13:42;1.90;99.90
29201;DHT22;16244;51.956;12.980;2024-01-15T11:16:58;1.90;99.90
29201;DHT22;16244;51.956;12.980;2024-01-15T11:19:35;2.00;99.90
29201;DHT22;16244;51.956;12.980;2024-01-15T11:22:04;2.00;99.90
29201;DHT22;16244;51.956;12.980;2024-01-15T11:24:37;2.00;99.90
29201;DHT22;16244;51.956;12.980;2024-01-15T11:27:07;2.00;99.90
29201;DHT22;16244;51.956;12.980;2024-01-15T11:29:36;2.00;99.90
29201;DHT22;16244;51.956;12.980;2024-01-15T11:32:06;1.90;99.90
29201;DHT22;16244;51.956;12.980;2024-01-15T11:34:56;1.80;99.90
29201;DHT22;16244;51.956;12.980;2024-01-15T11:37:26;1.70;99.90
29201;DHT22;16244;51.956;12.980;2024-01-15T11:39:54;1.60;99.90
29201;DHT22;16244;51.956;12.980;2024-01-15T11:42:22;1.60;99.90
29201;DHT22;16244;51.956;12.980;2024-01-15T11:44:50;1.60;99.90
29201;DHT22;16244;51.956;12.980;2024-01-15T11:48:02;1.60;99.90
29201;DHT22;16244;51.956;12.980;2024-01-15T11:50:33;1.50;99.90
29201;DHT22;16244;51.956;12.980;2024-01-15T11:53:02;1.60;99.90
29201;DHT22;16244;51.956;12.980;2024-01-15T11:55:34;1.50;99.90
29201;DHT22;16244;51.956;12.980;2024-01-15T11:58:02;1.50;99.90
29201;DHT22;16244;51.956;12.980;2024-01-15T12:00:34;1.50;99.90
29201;DHT22;16244;51.956;12.980;2024-01-15T12:03:08;1.40;99.90
29201;DHT22;16244;51.956;12.980;2024-01-15T12:05:37;1.40;99.90
29201;DHT22;16244;51.956;12.980;2024-01-15T12:08:04;1.40;99.90
29201;DHT22;16244;51.956;12.980;2024-01-15T12:10:37;1.30;99.90
29201;DHT22;16244;51.956;12.980;2024-01-15T12:13:10;1.20;99.90
29201;DHT22;16244;51.956;12.980;2024-01-15T12:15:38;1.10;99.90
29201;DHT22;16244;51.956;12.980;2024-01-15T12:18:09;1.10;99.90
29201;DHT22;16244;51.956;12.980;2024-01-15T12:20:37;1.10;99.90
29201;DHT22;16244;51.956;12.980;2024-01-15T12:23:05;1.10;99.90
29201;DHT22;16244;51.956;12.980;2024-01-15T12:25:34;1.10;99.90
29201;DHT22;16244;51.956;12.980;2024-01-15T12:28:02;1.10;99.90
29201;DHT22;16244;51.956;12.980;2024-01-15T12:30:30;1.10;99.90
29201;DHT22;16244;51.956;12.980;2024-01-15T12:33:01;1.10;99.90
29201;DHT22;16244;51.956;12.980;2024-01-15T12:35:36;1.10;99.90
29201;DHT22;16244;51.956;12.980;2024-01-15T12:38:18;1.10;99.90
29201;DHT22;16244;51.956;12.980;2024-01-15T12:40:46;1.10;99.90
29201;DHT22;16244;51.956;12.980;2024-01-15T12:43:13;1.10;99.90
29201;DHT22;16244;51.956;12.980;2024-01-15T12:45:41;1.10;99.90
29201;DHT22;16244;51.956;12.980;2024-01-15T12:48:09;1.10;99.90
29201;DHT22;16244;51.956;12.980;2024-01-15T12:50:38;1.20;99.90
29201;DHT22;16244;51.956;12.980;2024-01-15T12:53:25;1.30;99.90
29201;DHT22;16244;51.956;12.980;2024-01-15T12:55:53;1.30;99.90
29201;DHT22;16244;51.956;12.980;2024-01-15T12:58:21;1.30;99.90
29201;DHT22;16244;51.956;12.980;2024-01-15T13:00:50;1.40;99.90
29201;DHT22;16244;51.956;12.980;2024-01-15T13:03:18;1.40;99.90
29201;DHT22;16244;51.956;12.980;2024-01-15T13:05:47;1.40;99.90
29201;DHT22;16244;51.956;12.980;2024-01-15T13:08:15;1.50;99.90
29201;DHT22;16244;51.956;12.980;2024-01-15T13:10:42;1.50;99.90
29201;DHT22;16244;51.956;12.980;2024-01-15T13:13:10;1.60;99.90
29201;DHT22;16244;51.956;12.980;2024-01-15T13:15:37;1.60;99.90
29201;DHT22;16244;51.956;12.980;2024-01-15T13:18:06;1.60;99.90
29201;DHT22;16244;51.956;12.980;2024-01-15T13:20:34;1.60;99.90
29201;DHT22;16244;51.956;12.980;2024-01-15T13:23:05;1.60;99.90
29201;DHT22;16244;51.956;12.980;2024-01-15T13:25:32;1.70;99.90
29201;DHT22;16244;51.956;12.980;2024-01-15T13:28:02;1.70;99.90
29201;DHT22;16244;51.956;12.980;2024-01-15T13:30:32;1.70;99.90
29201;DHT22;16244;51.956;12.980;2024-01-15T13:33:00;1.70;99.90
29201;DHT22;16244;51.956;12.980;2024-01-15T13:35:30;1.70;99.90
29201;DHT22;16244;51.956;12.980;2024-01-15T13:37:58;1.70;99.90
29201;DHT22;16244;51.956;12.980;2024-01-15T13:40:27;1.70;99.90
29201;DHT22;16244;51.956;12.980;2024-01-15T13:42:54;1.70;99.90
29201;DHT22;16244;51.956;12.980;2024-01-15T13:45:22;1.70;99.90
29201;DHT22;16244;51.956;12.980;2024-01-15T13:47:50;1.70;99.90
29201;DHT22;16244;51.956;12.980;2024-01-15T13:50:18;1.70;99.90
29201;DHT22;16244;51.956;12.980;2024-01-15T13:52:45;1.70;99.90
29201;DHT22;16244;51.956;12.980;2024-01-15T13:55:13;1.70;99.90
29201;DHT22;16244;51.956;12.980;2024-01-15T13:57:42;1.70;99.90
29201;DHT22;16244;51.956;12.980;2024-01-15T14:00:37;1.70;99.90
29201;DHT22;16244;51.956;12.980;2024-01-15T14:03:33;1.70;99.90
29201;DHT22;16244;51.956;12.980;2024-01-15T14:06:01;1.60;99.90
29201;DHT22;16244;51.956;12.980;2024-01-15T14:08:29;1.60;99.90
29201;DHT22;16244;51.956;12.980;2024-01-15T14:10:57;1.60;99.90
29201;DHT22;16244;51.956;12.980;2024-01-15T14:13:26;1.70;99.90
29201;DHT22;16244;51.956;12.980;2024-01-15T14:15:53;1.60;99.90
29201;DHT22;16244;51.956;12.980;2024-01-15T14:18:22;1.60;99.90
29201;DHT22;16244;51.956;12.980;2024-01-15T14:20:49;1.60;99.90
29201;DHT22;16244;51.956;12.980;2024-01-15T14:23:16;1.60;99.90
29201;DHT22;16244;51.956;12.980;2024-01-15T14:25:45;1.50;99.90
29201;DHT22;16244;51.956;12.980;2024-01-15T14:36:08;1.50;99.90
29201;DHT22;16244;51.956;12.980;2024-01-15T14:39:03;1.50;99.90
29201;DHT22;16244;51.956;12.980;2024-01-15T14:41:58;1.50;99.90
29201;DHT22;16244;51.956;12.980;2024-01-15T14:44:26;1.50;99.90
29201;DHT22;16244;51.956;12.980;2024-01-15T14:46:54;1.50;99.90
29201;DHT22;16244;51.956;12.980;2024-01-15T14:49:22;1.50;99.90
29201;DHT22;16244;51.956;12.980;2024-01-15T14:51:51;1.40;99.90
29201;DHT22;16244;51.956;12.980;2024-01-15T14:54:18;1.40;99.90
29201;DHT22;16244;51.956;12.980;2024-01-15T14:56:47;1.40;99.90
29201;DHT22;16244;51.956;12.980;2024-01-15T14:59:14;1.40;99.90
29201;DHT22;16244;51.956;12.980;2024-01-15T15:01:42;1.40;99.90
29201;DHT22;16244;51.956;12.980;2024-01-15T15:04:09;1.50;99.90
29201;DHT22;16244;51.956;12.980;2024-01-15T15:06:37;1.40;99.90
29201;DHT22;16244;51.956;12.980;2024-01-15T15:09:06;1.40;99.90
29201;DHT22;16244;51.956;12.980;2024-01-15T15:11:36;1.30;99.90
29201;DHT22;16244;51.956;12.980;2024-01-15T15:14:04;1.30;99.90
29201;DHT22;16244;51.956;12.980;2024-01-15T15:16:31;1.30;99.90
29201;DHT22;16244;51.956;12.980;2024-01-15T15:18:59;1.20;99.90
29201;DHT22;16244;51.956;12.980;2024-01-15T15:21:26;1.10;99.90
29201;DHT22;16244;51.956;12.980;2024-01-15T15:23:54;1.10;99.90
29201;DHT22;16244;51.956;12.980;2024-01-15T15:26:23;1.00;99.90
29201;DHT22;16244;51.956;12.980;2024-01-15T15:28:51;1.00;99.90
29201;DHT22;16244;51.956;12.980;2024-01-15T15:31:19;1.00;99.90
29201;DHT22;16244;51.956;12.980;2024-01-15T15:33:46;1.00;99.90
29201;DHT22;16244;51.956;12.980;2024-01-15T15:36:14;1.00;99.90
29201;DHT22;16244;51.956;12.980;2024-01-15T15:38:41;1.00;99.90
29201;DHT22;16244;51.956;12.980;2024-01-15T15:41:09;1.00;99.90
29201;DHT22;16244;51.956;12.980;2024-01-15T15:43:39;1.00;99.90
29201;DHT22;16244;51.956;12.980;2024-01-15T15:46:07;1.00;99.90
29201;DHT22;16244;51.956;12.980;2024-01-15T15:48:34;1.00;99.90